sensor_id;sensor_type;location;lat;lon;timestamp;temperature;humidity
69328;DHT22;56472;52.114;5.492;2023-06-22T00:01:46;24.90;57.00
69328;DHT22;56472;52.114;5.492;2023-06-22T00:04:13;24.90;57.10
69328;DHT22;56472;52.114;5.492;2023-06-22T00:06:40;24.90;57.10
69328;DHT22;56472;52.114;5.492;2023-06-22T00:09:07;24.80;57.10
69328;DHT22;56472;52.114;5.492;2023-06-22T00:11:34;24.80;57.10
69328;DHT22;56472;52.114;5.492;2023-06-22T00:14:01;24.80;57.10
69328;DHT22;56472;52.114;5.492;2023-06-22T00:16:28;24.80;57.20
69328;DHT22;56472;52.114;5.492;2023-06-22T00:18:54;24.80;57.30
69328;DHT22;56472;52.114;5.492;2023-06-22T00:21:21;24.80;57.30
69328;DHT22;56472;52.114;5.492;2023-06-22T00:23:48;24.80;57.30
69328;DHT22;56472;52.114;5.492;2023-06-22T00:26:15;24.80;57.40
69328;DHT22;56472;52.114;5.492;2023-06-22T00:28:43;24.70;57.20
69328;DHT22;56472;52.114;5.492;2023-06-22T00:31:10;24.70;57.20
69328;DHT22;56472;52.114;5.492;2023-06-22T00:33:37;24.70;57.20
69328;DHT22;56472;52.114;5.492;2023-06-22T00:36:05;24.70;57.20
69328;DHT22;56472;52.114;5.492;2023-06-22T00:38:34;24.70;57.20
69328;DHT22;56472;52.114;5.492;2023-06-22T00:41:01;24.70;57.30
69328;DHT22;56472;52.114;5.492;2023-06-22T00:43:28;24.70;57.30
69328;DHT22;56472;52.114;5.492;2023-06-22T00:45:55;24.60;57.20
69328;DHT22;56472;52.114;5.492;2023-06-22T00:48:24;24.60;57.20
69328;DHT22;56472;52.114;5.492;2023-06-22T00:50:51;24.60;57.10
69328;DHT22;56472;52.114;5.492;2023-06-22T00:53:20;24.60;57.10
69328;DHT22;56472;52.114;5.492;2023-06-22T00:55:48;24.60;57.00
69328;DHT22;56472;52.114;5.492;2023-06-22T00:58:18;24.60;56.80
69328;DHT22;56472;52.114;5.492;2023-06-22T01:00:48;24.50;56.70
69328;DHT22;56472;52.114;5.492;2023-06-22T01:03:15;24.50;56.50
69328;DHT22;56472;52.114;5.492;2023-06-22T01:05:44;24.50;56.30
69328;DHT22;56472;52.114;5.492;2023-06-22T01:11:20;24.50;56.30
69328;DHT22;56472;52.114;5.492;2023-06-22T01:14:06;24.40;56.20
69328;DHT22;56472;52.114;5.492;2023-06-22T01:16:41;24.40;56.20
69328;DHT22;56472;52.114;5.492;2023-06-22T01:19:46;24.40;56.20
69328;DHT22;56472;52.114;5.492;2023-06-22T01:22:18;24.40;56.30
69328;DHT22;56472;52.114;5.492;2023-06-22T01:25:10;24.40;56.30
69328;DHT22;56472;52.114;5.492;2023-06-22T01:28:00;24.40;56.30
69328;DHT22;56472;52.114;5.492;2023-06-22T01:30:30;24.30;56.20
69328;DHT22;56472;52.114;5.492;2023-06-22T01:32:58;24.30;56.20
69328;DHT22;56472;52.114;5.492;2023-06-22T01:35:26;24.30;56.20
69328;DHT22;56472;52.114;5.492;2023-06-22T01:37:54;24.20;56.20
69328;DHT22;56472;52.114;5.492;2023-06-22T01:40:21;24.20;56.20
69328;DHT22;56472;52.114;5.492;2023-06-22T01:42:51;24.20;56.20
69328;DHT22;56472;52.114;5.492;2023-06-22T01:45:18;24.20;56.20
69328;DHT22;56472;52.114;5.492;2023-06-22T01:47:47;24.20;56.30
69328;DHT22;56472;52.114;5.492;2023-06-22T01:50:14;24.20;56.30
69328;DHT22;56472;52.114;5.492;2023-06-22T01:52:41;24.20;56.40
69328;DHT22;56472;52.114;5.492;2023-06-22T01:55:08;24.20;56.40
69328;DHT22;56472;52.114;5.492;2023-06-22T01:57:35;24.20;56.40
69328;DHT22;56472;52.114;5.492;2023-06-22T02:00:10;24.20;56.40
69328;DHT22;56472;52.114;5.492;2023-06-22T02:03:03;24.20;56.40
69328;DHT22;56472;52.114;5.492;2023-06-22T02:05:37;24.10;56.30
69328;DHT22;56472;52.114;5.492;2023-06-22T02:08:15;24.10;56.30
69328;DHT22;56472;52.114;5.492;2023-06-22T02:10:45;24.10;56.30
69328;DHT22;56472;52.114;5.492;2023-06-22T02:13:14;24.10;56.10
69328;DHT22;56472;52.114;5.492;2023-06-22T02:15:41;24.10;56.00
69328;DHT22;56472;52.114;5.492;2023-06-22T02:18:12;24.00;55.60
69328;DHT22;56472;52.114;5.492;2023-06-22T02:20:40;24.00;55.40
69328;DHT22;56472;52.114;5.492;2023-06-22T02:23:08;24.00;55.20
69328;DHT22;56472;52.114;5.492;2023-06-22T02:25:35;24.00;55.00
69328;DHT22;56472;52.114;5.492;2023-06-22T02:28:03;24.00;54.80
69328;DHT22;56472;52.114;5.492;2023-06-22T02:30:30;24.00;54.70
69328;DHT22;56472;52.114;5.492;2023-06-22T02:32:58;23.90;54.60
69328;DHT22;56472;52.114;5.492;2023-06-22T02:35:27;23.90;54.60
69328;DHT22;56472;52.114;5.492;2023-06-22T02:37:59;23.90;54.50
69328;DHT22;56472;52.114;5.492;2023-06-22T02:40:27;23.90;54.50
69328;DHT22;56472;52.114;5.492;2023-06-22T02:42:57;23.90;54.50
69328;DHT22;56472;52.114;5.492;2023-06-22T02:45:28;23.90;55.50
69328;DHT22;56472;52.114;5.492;2023-06-22T02:47:55;23.80;54.50
69328;DHT22;56472;52.114;5.492;2023-06-22T02:50:23;23.80;54.60
69328;DHT22;56472;52.114;5.492;2023-06-22T02:52:51;23.80;54.60
69328;DHT22;56472;52.114;5.492;2023-06-22T02:55:18;23.70;54.60
69328;DHT22;56472;52.114;5.492;2023-06-22T02:57:53;23.70;54.50
69328;DHT22;56472;52.114;5.492;2023-06-22T03:00:20;23.70;54.60
69328;DHT22;56472;52.114;5.492;2023-06-22T03:02:49;23.70;54.60
69328;DHT22;56472;52.114;5.492;2023-06-22T03:05:17;23.70;54.60
69328;DHT22;56472;52.114;5.492;2023-06-22T03:07:45;23.70;54.60
69328;DHT22;56472;52.114;5.492;2023-06-22T03:10:13;23.70;55.30
69328;DHT22;56472;52.114;5.492;2023-06-22T03:12:41;23.70;54.80
69328;DHT22;56472;52.114;5.492;2023-06-22T03:15:11;23.60;54.70
69328;DHT22;56472;52.114;5.492;2023-06-22T03:17:40;23.60;54.80
69328;DHT22;56472;52.114;5.492;2023-06-22T03:20:08;23.60;54.80
69328;DHT22;56472;52.114;5.492;2023-06-22T03:22:38;23.60;54.70
69328;DHT22;56472;52.114;5.492;2023-06-22T03:25:05;23.60;54.70
69328;DHT22;56472;52.114;5.492;2023-06-22T03:27:39;23.60;54.80
69328;DHT22;56472;52.114;5.492;2023-06-22T03:30:09;23.60;54.70
69328;DHT22;56472;52.114;5.492;2023-06-22T03:32:36;23.60;54.70
69328;DHT22;56472;52.114;5.492;2023-06-22T03:35:05;23.50;54.60
69328;DHT22;56472;52.114;5.492;2023-06-22T03:37:35;23.50;54.50
69328;DHT22;56472;52.114;5.492;2023-06-22T03:40:02;23.50;54.40
69328;DHT22;56472;52.114;5.492;2023-06-22T03:42:35;23.50;54.50
69328;DHT22;56472;52.114;5.492;2023-06-22T03:45:03;23.50;54.50
69328;DHT22;56472;52.114;5.492;2023-06-22T03:47:30;23.50;54.50
69328;DHT22;56472;52.114;5.492;2023-06-22T03:49:58;23.50;54.60
69328;DHT22;56472;52.114;5.492;2023-06-22T03:52:25;23.50;54.70
69328;DHT22;56472;52.114;5.492;2023-06-22T03:54:52;23.50;54.80
69328;DHT22;56472;52.114;5.492;2023-06-22T03:57:19;23.50;54.80
69328;DHT22;56472;52.114;5.492;2023-06-22T03:59:46;23.40;54.70
69328;DHT22;56472;52.114;5.492;2023-06-22T04:02:13;23.40;54.60
69328;DHT22;56472;52.114;5.492;2023-06-22T04:04:40;23.40;54.60
69328;DHT22;56472;52.114;5.492;2023-06-22T04:07:07;23.40;54.70
69328;DHT22;56472;52.114;5.492;2023-06-22T04:09:35;23.40;54.70
69328;DHT22;56472;52.114;5.492;2023-06-22T04:12:02;23.40;54.70
69328;DHT22;56472;52.114;5.492;2023-06-22T04:14:29;23.40;54.80
69328;DHT22;56472;52.114;5.492;2023-06-22T04:16:57;23.40;55.00
69328;DHT22;56472;52.114;5.492;2023-06-22T04:19:24;23.40;55.00
69328;DHT22;56472;52.114;5.492;2023-06-22T04:21:51;23.40;55.10
69328;DHT22;56472;52.114;5.492;2023-06-22T04:24:18;23.40;55.20
69328;DHT22;56472;52.114;5.492;2023-06-22T04:26:45;23.30;55.10
69328;DHT22;56472;52.114;5.492;2023-06-22T04:29:13;23.30;55.20
69328;DHT22;56472;52.114;5.492;2023-06-22T04:31:40;23.30;55.30
69328;DHT22;56472;52.114;5.492;2023-06-22T04:34:08;23.30;55.40
69328;DHT22;56472;52.114;5.492;2023-06-22T04:36:40;23.30;55.50
69328;DHT22;56472;52.114;5.492;2023-06-22T04:39:08;23.30;55.60
69328;DHT22;56472;52.114;5.492;2023-06-22T04:41:40;23.30;55.60
69328;DHT22;56472;52.114;5.492;2023-06-22T04:44:18;23.30;55.80
69328;DHT22;56472;52.114;5.492;2023-06-22T04:46:56;23.20;56.00
69328;DHT22;56472;52.114;5.492;2023-06-22T04:49:36;23.20;56.20
69328;DHT22;56472;52.114;5.492;2023-06-22T04:52:08;23.20;56.40
69328;DHT22;56472;52.114;5.492;2023-06-22T04:54:36;23.20;56.70
69328;DHT22;56472;52.114;5.492;2023-06-22T04:57:05;23.20;56.70
69328;DHT22;56472;52.114;5.492;2023-06-22T04:59:37;23.20;57.10
69328;DHT22;56472;52.114;5.492;2023-06-22T05:02:06;23.20;57.50
69328;DHT22;56472;52.114;5.492;2023-06-22T05:04:33;23.20;57.70
69328;DHT22;56472;52.114;5.492;2023-06-22T05:07:03;23.20;58.00
69328;DHT22;56472;52.114;5.492;2023-06-22T05:09:30;23.30;58.40
69328;DHT22;56472;52.114;5.492;2023-06-22T05:11:57;23.20;58.50
69328;DHT22;56472;52.114;5.492;2023-06-22T05:14:24;23.30;58.80
69328;DHT22;56472;52.114;5.492;2023-06-22T05:16:51;23.30;59.00
69328;DHT22;56472;52.114;5.492;2023-06-22T05:19:25;23.30;59.30
69328;DHT22;56472;52.114;5.492;2023-06-22T05:21:58;23.30;59.50
69328;DHT22;56472;52.114;5.492;2023-06-22T05:24:25;23.30;59.80
69328;DHT22;56472;52.114;5.492;2023-06-22T05:26:52;23.40;60.10
69328;DHT22;56472;52.114;5.492;2023-06-22T05:29:18;23.40;60.40
69328;DHT22;56472;52.114;5.492;2023-06-22T05:31:46;23.40;60.60
69328;DHT22;56472;52.114;5.492;2023-06-22T05:34:12;23.40;61.00
69328;DHT22;56472;52.114;5.492;2023-06-22T05:36:39;23.40;61.40
69328;DHT22;56472;52.114;5.492;2023-06-22T05:39:14;23.40;61.80
69328;DHT22;56472;52.114;5.492;2023-06-22T05:41:42;23.50;62.30
69328;DHT22;56472;52.114;5.492;2023-06-22T05:44:10;23.50;62.60
69328;DHT22;56472;52.114;5.492;2023-06-22T05:46:39;23.50;62.90
69328;DHT22;56472;52.114;5.492;2023-06-22T05:49:06;23.50;63.30
69328;DHT22;56472;52.114;5.492;2023-06-22T05:51:33;23.50;63.70
69328;DHT22;56472;52.114;5.492;2023-06-22T05:54:00;23.60;64.20
69328;DHT22;56472;52.114;5.492;2023-06-22T05:56:27;23.60;64.60
69328;DHT22;56472;52.114;5.492;2023-06-22T05:58:54;23.60;64.90
69328;DHT22;56472;52.114;5.492;2023-06-22T06:01:21;23.60;65.10
69328;DHT22;56472;52.114;5.492;2023-06-22T06:03:48;23.70;64.90
69328;DHT22;56472;52.114;5.492;2023-06-22T06:06:17;23.70;66.20
69328;DHT22;56472;52.114;5.492;2023-06-22T06:08:43;23.70;65.60
69328;DHT22;56472;52.114;5.492;2023-06-22T06:11:10;23.70;65.90
69328;DHT22;56472;52.114;5.492;2023-06-22T06:13:37;23.80;66.20
69328;DHT22;56472;52.114;5.492;2023-06-22T06:16:04;23.80;66.20
69328;DHT22;56472;52.114;5.492;2023-06-22T06:18:31;23.80;66.10
69328;DHT22;56472;52.114;5.492;2023-06-22T06:20:58;23.90;66.20
69328;DHT22;56472;52.114;5.492;2023-06-22T06:23:25;23.90;66.10
69328;DHT22;56472;52.114;5.492;2023-06-22T06:25:52;23.90;66.10
69328;DHT22;56472;52.114;5.492;2023-06-22T06:28:19;24.00;66.20
69328;DHT22;56472;52.114;5.492;2023-06-22T06:30:46;24.00;66.20
69328;DHT22;56472;52.114;5.492;2023-06-22T06:33:14;24.10;66.30
69328;DHT22;56472;52.114;5.492;2023-06-22T06:35:40;24.10;66.30
69328;DHT22;56472;52.114;5.492;2023-06-22T06:38:07;24.10;66.20
69328;DHT22;56472;52.114;5.492;2023-06-22T06:40:34;24.20;66.30
69328;DHT22;56472;52.114;5.492;2023-06-22T06:43:01;24.20;66.30
69328;DHT22;56472;52.114;5.492;2023-06-22T06:45:28;24.20;66.30
69328;DHT22;56472;52.114;5.492;2023-06-22T06:47:57;24.20;66.40
69328;DHT22;56472;52.114;5.492;2023-06-22T06:50:24;24.20;66.50
69328;DHT22;56472;52.114;5.492;2023-06-22T06:52:52;24.30;66.60
69328;DHT22;56472;52.114;5.492;2023-06-22T06:55:19;24.30;66.70
69328;DHT22;56472;52.114;5.492;2023-06-22T06:57:47;24.40;66.80
69328;DHT22;56472;52.114;5.492;2023-06-22T07:00:15;24.40;66.90
69328;DHT22;56472;52.114;5.492;2023-06-22T07:02:43;24.50;67.00
69328;DHT22;56472;52.114;5.492;2023-06-22T07:05:12;24.50;67.00
69328;DHT22;56472;52.114;5.492;2023-06-22T07:07:39;24.50;67.10
69328;DHT22;56472;52.114;5.492;2023-06-22T07:10:08;24.50;67.10
69328;DHT22;56472;52.114;5.492;2023-06-22T07:12:35;24.50;67.10
69328;DHT22;56472;52.114;5.492;2023-06-22T07:15:04;24.60;67.10
69328;DHT22;56472;52.114;5.492;2023-06-22T07:17:32;24.60;67.10
69328;DHT22;56472;52.114;5.492;2023-06-22T07:19:59;24.60;68.00
69328;DHT22;56472;52.114;5.492;2023-06-22T07:22:26;24.60;67.10
69328;DHT22;56472;52.114;5.492;2023-06-22T07:24:53;24.70;67.20
69328;DHT22;56472;52.114;5.492;2023-06-22T07:27:20;24.70;67.20
69328;DHT22;56472;52.114;5.492;2023-06-22T07:29:48;24.80;67.20
69328;DHT22;56472;52.114;5.492;2023-06-22T07:32:15;24.80;67.20
69328;DHT22;56472;52.114;5.492;2023-06-22T07:34:42;24.80;68.10
69328;DHT22;56472;52.114;5.492;2023-06-22T07:37:10;24.80;67.10
69328;DHT22;56472;52.114;5.492;2023-06-22T07:39:37;24.90;67.00
69328;DHT22;56472;52.114;5.492;2023-06-22T07:42:05;24.90;67.00
69328;DHT22;56472;52.114;5.492;2023-06-22T07:44:32;24.90;66.90
69328;DHT22;56472;52.114;5.492;2023-06-22T07:46:59;24.90;66.80
69328;DHT22;56472;52.114;5.492;2023-06-22T07:49:28;25.00;66.80
69328;DHT22;56472;52.114;5.492;2023-06-22T07:51:56;25.00;66.70
69328;DHT22;56472;52.114;5.492;2023-06-22T07:54:22;25.00;66.70
69328;DHT22;56472;52.114;5.492;2023-06-22T07:56:50;25.00;66.50
69328;DHT22;56472;52.114;5.492;2023-06-22T07:59:17;25.00;66.50
69328;DHT22;56472;52.114;5.492;2023-06-22T08:01:43;25.10;66.50
69328;DHT22;56472;52.114;5.492;2023-06-22T08:04:11;25.10;66.50
69328;DHT22;56472;52.114;5.492;2023-06-22T08:06:38;25.10;66.50
69328;DHT22;56472;52.114;5.492;2023-06-22T08:09:05;25.10;66.40
69328;DHT22;56472;52.114;5.492;2023-06-22T08:11:32;25.20;66.40
69328;DHT22;56472;52.114;5.492;2023-06-22T08:13:59;25.20;66.40
69328;DHT22;56472;52.114;5.492;2023-06-22T08:16:26;25.20;66.30
69328;DHT22;56472;52.114;5.492;2023-06-22T08:18:53;25.20;66.30
69328;DHT22;56472;52.114;5.492;2023-06-22T08:21:20;25.20;66.30
69328;DHT22;56472;52.114;5.492;2023-06-22T08:23:47;25.30;66.30
69328;DHT22;56472;52.114;5.492;2023-06-22T08:26:15;25.30;66.30
69328;DHT22;56472;52.114;5.492;2023-06-22T08:28:42;25.30;66.30
69328;DHT22;56472;52.114;5.492;2023-06-22T08:31:09;25.40;66.40
69328;DHT22;56472;52.114;5.492;2023-06-22T08:33:39;25.40;66.50
69328;DHT22;56472;52.114;5.492;2023-06-22T08:36:15;25.40;66.40
69328;DHT22;56472;52.114;5.492;2023-06-22T08:38:42;25.40;66.30
69328;DHT22;56472;52.114;5.492;2023-06-22T08:41:10;25.40;66.20
69328;DHT22;56472;52.114;5.492;2023-06-22T08:43:37;25.40;66.20
69328;DHT22;56472;52.114;5.492;2023-06-22T08:46:04;25.40;66.10
69328;DHT22;56472;52.114;5.492;2023-06-22T08:48:30;25.50;66.10
69328;DHT22;56472;52.114;5.492;2023-06-22T08:50:57;25.50;66.00
69328;DHT22;56472;52.114;5.492;2023-06-22T08:53:24;25.50;65.90
69328;DHT22;56472;52.114;5.492;2023-06-22T08:55:51;25.50;65.80
69328;DHT22;56472;52.114;5.492;2023-06-22T08:58:18;25.60;65.80
69328;DHT22;56472;52.114;5.492;2023-06-22T09:00:48;25.60;65.90
69328;DHT22;56472;52.114;5.492;2023-06-22T09:03:15;25.60;65.70
69328;DHT22;56472;52.114;5.492;2023-06-22T09:05:42;25.60;66.60
69328;DHT22;56472;52.114;5.492;2023-06-22T09:08:11;25.60;65.60
69328;DHT22;56472;52.114;5.492;2023-06-22T09:10:38;25.70;65.50
69328;DHT22;56472;52.114;5.492;2023-06-22T09:13:05;25.70;65.30
69328;DHT22;56472;52.114;5.492;2023-06-22T09:15:31;25.70;65.10
69328;DHT22;56472;52.114;5.492;2023-06-22T09:17:59;25.70;64.90
69328;DHT22;56472;52.114;5.492;2023-06-22T09:20:26;25.70;64.70
69328;DHT22;56472;52.114;5.492;2023-06-22T09:22:54;25.70;64.50
69328;DHT22;56472;52.114;5.492;2023-06-22T09:25:20;25.70;64.40
69328;DHT22;56472;52.114;5.492;2023-06-22T09:27:48;25.70;64.20
69328;DHT22;56472;52.114;5.492;2023-06-22T09:30:14;25.70;64.20
69328;DHT22;56472;52.114;5.492;2023-06-22T09:32:41;25.70;64.20
69328;DHT22;56472;52.114;5.492;2023-06-22T09:35:09;25.70;64.10
69328;DHT22;56472;52.114;5.492;2023-06-22T09:37:40;25.80;64.10
69328;DHT22;56472;52.114;5.492;2023-06-22T09:40:08;25.80;64.00
69328;DHT22;56472;52.114;5.492;2023-06-22T09:42:37;25.80;63.90
69328;DHT22;56472;52.114;5.492;2023-06-22T09:45:04;25.80;63.70
69328;DHT22;56472;52.114;5.492;2023-06-22T09:47:31;25.80;63.70
69328;DHT22;56472;52.114;5.492;2023-06-22T09:49:59;25.80;63.50
69328;DHT22;56472;52.114;5.492;2023-06-22T09:52:26;25.80;63.40
69328;DHT22;56472;52.114;5.492;2023-06-22T09:55:12;25.80;63.20
69328;DHT22;56472;52.114;5.492;2023-06-22T09:57:39;25.80;63.20
69328;DHT22;56472;52.114;5.492;2023-06-22T10:00:07;25.80;63.10
69328;DHT22;56472;52.114;5.492;2023-06-22T10:02:39;25.90;63.10
69328;DHT22;56472;52.114;5.492;2023-06-22T10:05:07;25.90;62.90
69328;DHT22;56472;52.114;5.492;2023-06-22T10:07:34;25.80;62.70
69328;DHT22;56472;52.114;5.492;2023-06-22T10:10:06;25.80;62.60
69328;DHT22;56472;52.114;5.492;2023-06-22T10:12:33;25.80;62.40
69328;DHT22;56472;52.114;5.492;2023-06-22T10:15:01;25.80;62.40
69328;DHT22;56472;52.114;5.492;2023-06-22T10:17:28;25.80;62.20
69328;DHT22;56472;52.114;5.492;2023-06-22T10:19:55;25.70;61.90
69328;DHT22;56472;52.114;5.492;2023-06-22T10:22:22;25.70;61.80
69328;DHT22;56472;52.114;5.492;2023-06-22T10:24:49;25.70;61.60
69328;DHT22;56472;52.114;5.492;2023-06-22T10:27:16;25.70;61.40
69328;DHT22;56472;52.114;5.492;2023-06-22T10:29:44;25.70;61.40
69328;DHT22;56472;52.114;5.492;2023-06-22T10:32:11;25.70;61.30
69328;DHT22;56472;52.114;5.492;2023-06-22T10:34:38;25.70;61.30
69328;DHT22;56472;52.114;5.492;2023-06-22T10:37:05;25.70;61.30
69328;DHT22;56472;52.114;5.492;2023-06-22T10:39:32;25.70;61.40
69328;DHT22;56472;52.114;5.492;2023-06-22T10:41:59;25.70;61.40
69328;DHT22;56472;52.114;5.492;2023-06-22T10:44:26;25.70;61.50
69328;DHT22;56472;52.114;5.492;2023-06-22T10:46:53;25.70;61.50
69328;DHT22;56472;52.114;5.492;2023-06-22T10:49:20;25.70;61.60
69328;DHT22;56472;52.114;5.492;2023-06-22T10:51:47;25.70;61.60
69328;DHT22;56472;52.114;5.492;2023-06-22T10:54:14;25.70;61.80
69328;DHT22;56472;52.114;5.492;2023-06-22T10:56:40;25.70;61.80
69328;DHT22;56472;52.114;5.492;2023-06-22T10:59:07;25.70;61.90
69328;DHT22;56472;52.114;5.492;2023-06-22T11:01:34;25.70;62.00
69328;DHT22;56472;52.114;5.492;2023-06-22T11:04:03;25.70;62.00
69328;DHT22;56472;52.114;5.492;2023-06-22T11:06:31;25.70;62.20
69328;DHT22;56472;52.114;5.492;2023-06-22T11:08:58;25.70;62.40
69328;DHT22;56472;52.114;5.492;2023-06-22T11:11:32;25.70;62.50
69328;DHT22;56472;52.114;5.492;2023-06-22T11:13:59;25.70;63.60
69328;DHT22;56472;52.114;5.492;2023-06-22T11:16:27;25.70;63.00
69328;DHT22;56472;52.114;5.492;2023-06-22T11:18:54;25.70;63.30
69328;DHT22;56472;52.114;5.492;2023-06-22T11:21:21;25.70;63.60
69328;DHT22;56472;52.114;5.492;2023-06-22T11:23:48;25.80;63.90
69328;DHT22;56472;52.114;5.492;2023-06-22T11:26:15;25.80;64.00
69328;DHT22;56472;52.114;5.492;2023-06-22T11:28:42;25.80;64.10
69328;DHT22;56472;52.114;5.492;2023-06-22T11:31:09;25.80;64.00
69328;DHT22;56472;52.114;5.492;2023-06-22T11:33:52;25.80;63.90
69328;DHT22;56472;52.114;5.492;2023-06-22T11:36:19;25.80;63.90
69328;DHT22;56472;52.114;5.492;2023-06-22T11:38:46;25.80;64.80
69328;DHT22;56472;52.114;5.492;2023-06-22T11:41:13;25.80;64.00
69328;DHT22;56472;52.114;5.492;2023-06-22T11:43:40;25.80;63.90
69328;DHT22;56472;52.114;5.492;2023-06-22T11:46:07;25.80;63.80
69328;DHT22;56472;52.114;5.492;2023-06-22T11:48:34;25.80;63.70
69328;DHT22;56472;52.114;5.492;2023-06-22T11:51:02;25.80;63.70
69328;DHT22;56472;52.114;5.492;2023-06-22T11:53:30;25.80;63.70
69328;DHT22;56472;52.114;5.492;2023-06-22T11:55:57;25.80;63.70
69328;DHT22;56472;52.114;5.492;2023-06-22T11:58:24;25.90;63.60
69328;DHT22;56472;52.114;5.492;2023-06-22T12:00:51;25.80;63.50
69328;DHT22;56472;52.114;5.492;2023-06-22T12:03:19;25.80;63.70
69328;DHT22;56472;52.114;5.492;2023-06-22T12:05:50;25.80;63.90
69328;DHT22;56472;52.114;5.492;2023-06-22T12:08:18;25.80;63.90
69328;DHT22;56472;52.114;5.492;2023-06-22T12:10:45;25.80;64.00
69328;DHT22;56472;52.114;5.492;2023-06-22T12:13:12;25.80;64.30
69328;DHT22;56472;52.114;5.492;2023-06-22T12:15:39;25.80;64.40
69328;DHT22;56472;52.114;5.492;2023-06-22T12:18:06;25.80;64.50
69328;DHT22;56472;52.114;5.492;2023-06-22T12:20:33;25.80;64.50
69328;DHT22;56472;52.114;5.492;2023-06-22T12:23:01;25.80;64.60
69328;DHT22;56472;52.114;5.492;2023-06-22T12:25:28;25.80;64.70
69328;DHT22;56472;52.114;5.492;2023-06-22T12:27:54;25.80;64.80
69328;DHT22;56472;52.114;5.492;2023-06-22T12:30:22;25.80;66.00
69328;DHT22;56472;52.114;5.492;2023-06-22T12:32:49;25.80;65.30
69328;DHT22;56472;52.114;5.492;2023-06-22T12:35:19;25.80;65.20
69328;DHT22;56472;52.114;5.492;2023-06-22T12:37:47;25.80;65.20
69328;DHT22;56472;52.114;5.492;2023-06-22T12:40:14;25.80;65.10
69328;DHT22;56472;52.114;5.492;2023-06-22T12:42:40;25.80;65.40
69328;DHT22;56472;52.114;5.492;2023-06-22T12:45:09;25.80;65.70
69328;DHT22;56472;52.114;5.492;2023-06-22T12:47:36;25.80;66.00
69328;DHT22;56472;52.114;5.492;2023-06-22T12:50:03;25.80;66.20
69328;DHT22;56472;52.114;5.492;2023-06-22T12:52:31;25.80;66.50
69328;DHT22;56472;52.114;5.492;2023-06-22T12:54:59;25.80;66.90
69328;DHT22;56472;52.114;5.492;2023-06-22T12:57:26;25.80;66.90
69328;DHT22;56472;52.114;5.492;2023-06-22T12:59:53;25.80;67.00
69328;DHT22;56472;52.114;5.492;2023-06-22T13:02:20;25.80;67.30
69328;DHT22;56472;52.114;5.492;2023-06-22T13:04:47;25.80;67.50
69328;DHT22;56472;52.114;5.492;2023-06-22T13:07:14;25.80;67.60
69328;DHT22;56472;52.114;5.492;2023-06-22T13:09:50;25.80;67.80
69328;DHT22;56472;52.114;5.492;2023-06-22T13:12:20;25.80;68.00
69328;DHT22;56472;52.114;5.492;2023-06-22T13:14:48;25.80;68.40
69328;DHT22;56472;52.114;5.492;2023-06-22T13:17:16;25.80;69.10
69328;DHT22;56472;52.114;5.492;2023-06-22T13:19:43;25.80;69.20
69328;DHT22;56472;52.114;5.492;2023-06-22T13:22:30;25.80;69.60
69328;DHT22;56472;52.114;5.492;2023-06-22T13:24:58;25.80;70.20
69328;DHT22;56472;52.114;5.492;2023-06-22T13:27:26;25.80;70.30
69328;DHT22;56472;52.114;5.492;2023-06-22T13:29:53;25.80;70.60
69328;DHT22;56472;52.114;5.492;2023-06-22T13:32:20;25.80;70.70
69328;DHT22;56472;52.114;5.492;2023-06-22T13:34:47;25.80;70.80
69328;DHT22;56472;52.114;5.492;2023-06-22T13:37:14;25.80;70.80
69328;DHT22;56472;52.114;5.492;2023-06-22T13:39:41;25.80;71.00
69328;DHT22;56472;52.114;5.492;2023-06-22T13:42:08;25.80;71.20
69328;DHT22;56472;52.114;5.492;2023-06-22T13:44:35;25.80;71.30
69328;DHT22;56472;52.114;5.492;2023-06-22T13:47:03;25.80;71.50
69328;DHT22;56472;52.114;5.492;2023-06-22T13:49:31;25.80;71.60
69328;DHT22;56472;52.114;5.492;2023-06-22T13:51:58;25.80;71.70
69328;DHT22;56472;52.114;5.492;2023-06-22T13:54:25;25.80;71.80
69328;DHT22;56472;52.114;5.492;2023-06-22T13:56:56;25.80;71.80
69328;DHT22;56472;52.114;5.492;2023-06-22T13:59:23;25.80;71.90
69328;DHT22;56472;52.114;5.492;2023-06-22T14:01:50;25.80;72.10
69328;DHT22;56472;52.114;5.492;2023-06-22T14:04:17;25.80;72.10
69328;DHT22;56472;52.114;5.492;2023-06-22T14:06:44;25.80;72.20
69328;DHT22;56472;52.114;5.492;2023-06-22T14:09:11;25.80;72.30
69328;DHT22;56472;52.114;5.492;2023-06-22T14:11:38;25.80;72.40
69328;DHT22;56472;52.114;5.492;2023-06-22T14:14:05;25.80;72.50
69328;DHT22;56472;52.114;5.492;2023-06-22T14:16:32;25.80;72.60
69328;DHT22;56472;52.114;5.492;2023-06-22T14:18:59;25.80;72.70
69328;DHT22;56472;52.114;5.492;2023-06-22T14:21:26;25.80;72.60
69328;DHT22;56472;52.114;5.492;2023-06-22T14:23:53;25.80;72.50
69328;DHT22;56472;52.114;5.492;2023-06-22T14:26:20;25.80;72.40
69328;DHT22;56472;52.114;5.492;2023-06-22T14:28:48;25.80;72.40
69328;DHT22;56472;52.114;5.492;2023-06-22T14:31:17;25.80;72.50
69328;DHT22;56472;52.114;5.492;2023-06-22T14:33:49;25.80;72.50
69328;DHT22;56472;52.114;5.492;2023-06-22T14:36:16;25.80;72.70
69328;DHT22;56472;52.114;5.492;2023-06-22T14:38:46;25.80;72.70
69328;DHT22;56472;52.114;5.492;2023-06-22T14:41:14;25.80;72.70
69328;DHT22;56472;52.114;5.492;2023-06-22T14:43:49;25.80;72.70
69328;DHT22;56472;52.114;5.492;2023-06-22T14:46:18;25.80;72.60
69328;DHT22;56472;52.114;5.492;2023-06-22T14:48:45;25.80;72.60
69328;DHT22;56472;52.114;5.492;2023-06-22T14:51:12;25.70;72.50
69328;DHT22;56472;52.114;5.492;2023-06-22T14:53:44;25.70;72.40
69328;DHT22;56472;52.114;5.492;2023-06-22T14:56:12;25.80;72.50
69328;DHT22;56472;52.114;5.492;2023-06-22T14:58:43;25.70;72.30
69328;DHT22;56472;52.114;5.492;2023-06-22T15:01:17;25.70;72.40
69328;DHT22;56472;52.114;5.492;2023-06-22T15:03:44;25.70;72.40
69328;DHT22;56472;52.114;5.492;2023-06-22T15:06:11;25.70;72.30
69328;DHT22;56472;52.114;5.492;2023-06-22T15:08:39;25.70;72.30
69328;DHT22;56472;52.114;5.492;2023-06-22T15:11:07;25.70;72.30
69328;DHT22;56472;52.114;5.492;2023-06-22T15:13:34;25.70;72.30
69328;DHT22;56472;52.114;5.492;2023-06-22T15:16:02;25.70;72.20
69328;DHT22;56472;52.114;5.492;2023-06-22T15:18:31;25.70;72.20
69328;DHT22;56472;52.114;5.492;2023-06-22T15:21:00;25.70;72.10
69328;DHT22;56472;52.114;5.492;2023-06-22T15:23:29;25.70;72.10
69328;DHT22;56472;52.114;5.492;2023-06-22T15:25:56;25.70;72.00
69328;DHT22;56472;52.114;5.492;2023-06-22T15:28:24;25.70;72.00
69328;DHT22;56472;52.114;5.492;2023-06-22T15:30:51;25.70;72.00
69328;DHT22;56472;52.114;5.492;2023-06-22T15:33:19;25.70;72.00
69328;DHT22;56472;52.114;5.492;2023-06-22T15:35:46;25.60;72.00
69328;DHT22;56472;52.114;5.492;2023-06-22T15:38:13;25.60;71.90
69328;DHT22;56472;52.114;5.492;2023-06-22T15:40:40;25.60;71.90